Time;durP1;ratioP1;P1;durP2;ratioP2;P2;SDS_P1;SDS_P2;PMS_P1;PMS_P2;Temp;Humidity;BMP_temperature;BMP_pressure;BME280_temperature;BME280_humidity;BME280_pressure;Samples;Min_cycle;Max_cycle;Signal;HPM_P1;HPM_P2
2023/05/20 00:00:39;;;;;;;15.88;4.93;;;12.20;99.90;;;;;;4859854;29;20073;-88
2023/05/20 00:03:05;;;;;;;14.93;5.03;;;11.10;99.90;;;;;;4861737;29;20054;-89
2023/05/20 00:05:48;;;;;;;13.52;5.07;;;12.20;99.90;;;;;;4858847;29;20053;-89
2023/05/20 00:08:14;;;;;;;15.93;5.47;;;11.00;99.90;;;;;;4860080;29;20041;-89
2023/05/20 00:10:46;;;;;;;10.18;4.60;;;12.00;99.90;;;;;;4859524;29;20046;-89
2023/05/20 00:13:12;;;;;;;14.18;5.32;;;12.10;99.90;;;;;;4858535;29;20053;-89
2023/05/20 00:15:38;;;;;;;11.50;5.10;;;10.80;99.90;;;;;;4859340;29;20113;-88
2023/05/20 00:18:15;;;;;;;11.18;4.93;;;11.80;99.90;;;;;;4858167;29;20045;-89
2023/05/20 00:20:41;;;;;;;12.23;4.70;;;11.10;99.90;;;;;;4860309;29;20048;-89
2023/05/20 00:23:07;;;;;;;12.10;5.22;;;12.10;99.90;;;;;;4859642;29;20140;-89
2023/05/20 00:25:32;;;;;;;13.27;5.03;;;11.30;99.90;;;;;;4859795;29;20049;-88
2023/05/20 00:28:11;;;;;;;14.80;5.40;;;12.10;99.90;;;;;;4875011;29;20117;-89
2023/05/20 00:30:53;;;;;;;11.90;5.05;;;11.10;99.90;;;;;;4874299;29;20494;-89
2023/05/20 00:33:18;;;;;;;14.90;4.95;;;11.10;99.90;;;;;;4858935;29;20085;-90
2023/05/20 00:36:36;;;;;;;10.13;4.80;;;12.20;99.90;;;;;;4859208;29;20053;-88
2023/05/20 00:39:01;;;;;;;11.82;5.10;;;11.20;99.90;;;;;;4858955;29;20054;-88
2023/05/20 00:41:27;;;;;;;14.45;5.18;;;11.10;99.90;;;;;;4859946;29;20109;-89
2023/05/20 00:44:01;;;;;;;12.70;4.78;;;12.00;99.90;;;;;;4859925;29;20049;-89
2023/05/20 00:46:34;;;;;;;10.90;4.93;;;11.10;99.90;;;;;;4857839;29;20041;-88
2023/05/20 00:49:00;;;;;;;12.60;4.80;;;12.00;99.90;;;;;;4858987;29;20110;-89
2023/05/20 00:51:29;;;;;;;12.05;5.00;;;12.10;99.90;;;;;;4872840;29;20049;-89
2023/05/20 00:53:58;;;;;;;11.48;5.00;;;12.10;99.90;;;;;;4858790;29;20085;-88
2023/05/20 00:56:25;;;;;;;13.02;4.60;;;11.60;99.90;;;;;;4858646;29;20037;-88
2023/05/20 00:59:06;;;;;;;11.63;4.80;;;12.10;99.90;;;;;;4858326;29;20056;-89
2023/05/20 01:01:31;;;;;;;15.63;5.20;;;11.20;99.90;;;;;;4858759;29;20088;-88
2023/05/20 01:03:58;;;;;;;12.15;4.97;;;12.30;99.90;;;;;;5348376;23;20049;-89
2023/05/20 01:06:24;;;;;;;15.70;5.63;;;11.40;99.90;;;;;;4896602;29;20056;-89
2023/05/20 01:09:04;;;;;;;11.30;4.95;;;12.10;99.90;;;;;;4899161;29;20104;-89
2023/05/20 01:11:52;;;;;;;13.48;5.10;;;11.00;99.90;;;;;;4900539;29;20246;-89
2023/05/20 01:14:48;;;;;;;13.10;5.00;;;11.00;99.90;;;;;;4898139;29;20045;-89
2023/05/20 01:17:31;;;;;;;12.00;4.80;;;11.10;99.90;;;;;;4899000;29;20052;-89
2023/05/20 01:20:06;;;;;;;11.75;4.85;;;12.00;99.90;;;;;;4899376;29;20044;-88
2023/05/20 01:23:08;;;;;;;12.25;4.95;;;11.10;99.90;;;;;;4900330;29;20123;-89
2023/05/20 01:25:41;;;;;;;12.98;4.50;;;11.10;99.90;;;;;;4899878;29;20059;-89
2023/05/20 01:28:25;;;;;;;12.20;5.20;;;12.10;99.90;;;;;;4899357;29;20401;-89
2023/05/20 01:30:55;;;;;;;12.82;4.93;;;12.20;99.90;;;;;;4886827;29;20064;-87
2023/05/20 01:33:28;;;;;;;12.48;4.40;;;12.20;99.90;;;;;;4903655;29;20075;-88
2023/05/20 01:35:56;;;;;;;12.77;4.80;;;12.30;99.90;;;;;;4899314;29;20053;-88
2023/05/20 01:38:31;;;;;;;15.25;5.00;;;12.10;99.90;;;;;;4898254;29;20056;-88
2023/05/20 01:40:58;;;;;;;12.70;4.90;;;12.20;99.90;;;;;;4897914;29;20045;-88
2023/05/20 01:43:25;;;;;;;11.02;4.75;;;12.00;99.90;;;;;;4898366;29;20072;-88
2023/05/20 01:46:33;;;;;;;16.73;5.25;;;12.30;99.90;;;;;;4898480;29;20115;-89
2023/05/20 01:49:11;;;;;;;10.75;4.60;;;11.20;99.90;;;;;;4888325;29;20057;-88
2023/05/20 01:51:37;;;;;;;11.73;4.78;;;11.00;99.90;;;;;;4899534;29;20057;-88
2023/05/20 01:54:02;;;;;;;11.93;4.45;;;11.10;99.90;;;;;;4898964;29;20060;-88
2023/05/20 01:56:28;;;;;;;12.63;4.60;;;12.00;99.90;;;;;;4897387;29;20458;-89
2023/05/20 01:59:09;;;;;;;11.25;4.78;;;12.20;99.90;;;;;;4898409;29;20049;-88
2023/05/20 02:01:35;;;;;;;13.23;4.90;;;11.10;99.90;;;;;;4897935;29;20104;-87
2023/05/20 02:04:01;;;;;;;11.90;4.40;;;11.10;99.90;;;;;;4897582;29;20052;-87
2023/05/20 02:06:52;;;;;;;12.48;4.78;;;12.00;99.90;;;;;;4897282;29;20107;-88
2023/05/20 02:09:17;;;;;;;13.73;4.75;;;10.60;99.90;;;;;;4896904;29;20048;-88
2023/05/20 02:11:43;;;;;;;11.90;4.82;;;11.60;99.90;;;;;;4912671;29;20096;-88
2023/05/20 02:14:18;;;;;;;10.52;4.47;;;12.20;99.90;;;;;;4900928;29;20045;-88
2023/05/20 02:16:52;;;;;;;12.27;4.40;;;12.30;99.90;;;;;;4898945;29;20040;-88
2023/05/20 02:19:33;;;;;;;8.70;4.07;;;11.60;99.90;;;;;;4897464;29;20076;-88
2023/05/20 02:21:58;;;;;;;12.48;4.70;;;10.90;99.90;;;;;;4897703;29;20080;-88
2023/05/20 02:24:33;;;;;;;11.05;4.35;;;11.10;99.90;;;;;;4896675;29;20087;-88
2023/05/20 02:27:00;;;;;;;11.02;4.20;;;11.90;99.90;;;;;;4899488;29;20076;-89
2023/05/20 02:29:29;;;;;;;12.32;4.80;;;10.90;99.90;;;;;;4898180;29;20056;-88
2023/05/20 02:31:55;;;;;;;10.43;4.40;;;10.60;99.90;;;;;;4897655;29;20084;-88
2023/05/20 02:34:33;;;;;;;13.35;5.22;;;10.70;99.90;;;;;;4897524;29;20501;-89
2023/05/20 02:37:18;;;;;;;10.07;4.60;;;11.40;99.90;;;;;;4898261;29;20076;-89
2023/05/20 02:39:43;;;;;;;11.88;4.47;;;10.80;99.90;;;;;;4897592;29;20055;-89
2023/05/20 02:42:24;;;;;;;11.50;4.75;;;10.90;99.90;;;;;;4897330;29;20404;-89
2023/05/20 02:44:52;;;;;;;14.23;4.53;;;10.40;99.90;;;;;;4896775;29;20153;-89
2023/05/20 02:47:35;;;;;;;12.68;4.53;;;12.10;99.90;;;;;;4898690;29;20040;-89
2023/05/20 02:50:01;;;;;;;12.88;4.88;;;11.10;99.90;;;;;;4897540;29;20416;-89
2023/05/20 02:52:27;;;;;;;10.23;4.53;;;11.50;99.90;;;;;;4896435;29;20131;-89
2023/05/20 02:54:52;;;;;;;12.40;4.20;;;10.10;99.90;;;;;;4897342;29;20053;-89
2023/05/20 02:57:18;;;;;;;10.32;4.18;;;11.90;99.90;;;;;;4897192;29;20135;-88
2023/05/20 02:59:44;;;;;;;11.02;4.13;;;10.70;99.90;;;;;;4897092;29;20536;-89
2023/05/20 03:02:23;;;;;;;10.70;4.10;;;11.20;99.90;;;;;;4903550;29;20048;-88
2023/05/20 03:04:49;;;;;;;11.93;3.90;;;10.30;99.90;;;;;;4898755;29;20052;-90
2023/05/20 03:10:56;;;;;;;10.45;4.65;;;10.70;99.90;;;;;;4898202;29;20072;-89
2023/05/20 03:13:21;;;;;;;12.63;4.78;;;9.60;99.90;;;;;;4897136;29;20044;-89
2023/05/20 03:19:31;;;;;;;11.70;4.30;;;10.70;99.90;;;;;;4894392;29;20038;-89
2023/05/20 03:21:56;;;;;;;9.63;4.00;;;10.60;99.90;;;;;;4896987;29;20416;-89
2023/05/20 03:24:22;;;;;;;10.93;4.18;;;11.30;99.90;;;;;;4897028;29;20157;-89
2023/05/20 03:26:48;;;;;;;10.32;4.07;;;11.50;99.90;;;;;;4896719;29;20103;-89
2023/05/20 03:29:16;;;;;;;10.52;3.95;;;11.80;99.90;;;;;;4899339;29;20136;-89
2023/05/20 03:31:51;;;;;;;10.50;4.00;;;11.70;99.90;;;;;;4897143;29;20052;-90
2023/05/20 03:34:16;;;;;;;10.52;4.15;;;10.50;99.90;;;;;;4895713;29;20052;-89
2023/05/20 03:36:50;;;;;;;9.93;3.83;;;11.50;99.90;;;;;;4897072;29;20067;-89
2023/05/20 03:39:35;;;;;;;9.25;3.85;;;11.50;99.90;;;;;;4897187;29;20490;-89
2023/05/20 03:42:01;;;;;;;11.80;4.30;;;9.60;99.90;;;;;;4897124;29;20108;-89
2023/05/20 03:44:26;;;;;;;9.85;3.75;;;11.30;99.90;;;;;;4896473;29;20104;-88
2023/05/20 03:47:01;;;;;;;10.90;4.20;;;10.90;99.90;;;;;;4896456;29;20052;-88
2023/05/20 03:49:39;;;;;;;10.38;3.97;;;11.40;99.90;;;;;;4896785;29;20040;-89
2023/05/20 03:52:06;;;;;;;11.32;3.92;;;10.10;99.90;;;;;;4895981;29;20425;-89
2023/05/20 03:54:35;;;;;;;11.57;4.68;;;10.00;99.90;;;;;;4897516;29;20041;-89
2023/05/20 03:57:02;;;;;;;9.00;3.58;;;9.90;99.90;;;;;;4897248;29;20203;-89
2023/05/20 03:59:37;;;;;;;8.95;3.33;;;11.30;99.90;;;;;;4893256;23;20105;-88
2023/05/20 04:02:03;;;;;;;10.50;3.63;;;11.10;99.90;;;;;;4833344;29;20136;-89
2023/05/20 04:04:29;;;;;;;11.27;4.30;;;10.00;99.90;;;;;;4824151;29;20513;-89
2023/05/20 04:07:02;;;;;;;9.85;3.80;;;11.40;99.90;;;;;;4820999;29;20051;-88
2023/05/20 04:09:27;;;;;;;9.93;3.53;;;10.00;99.90;;;;;;4834319;29;20479;-89
2023/05/20 04:11:53;;;;;;;10.68;3.50;;;10.30;99.90;;;;;;4840759;29;20065;-89
2023/05/20 04:14:28;;;;;;;10.70;3.88;;;11.30;99.90;;;;;;4840213;29;20055;-88
2023/05/20 04:16:53;;;;;;;10.02;3.42;;;9.90;99.90;;;;;;4841305;29;20110;-88
2023/05/20 04:19:39;;;;;;;9.60;3.70;;;11.10;99.90;;;;;;4841739;29;20073;-89
2023/05/20 04:22:25;;;;;;;8.48;3.20;;;10.00;99.90;;;;;;4841634;29;20062;-90
2023/05/20 04:24:51;;;;;;;9.60;3.47;;;9.70;99.90;;;;;;4842194;29;20053;-89
2023/05/20 04:27:20;;;;;;;8.48;3.55;;;11.10;99.90;;;;;;4840236;29;20050;-89
2023/05/20 04:29:54;;;;;;;9.43;3.58;;;10.10;99.90;;;;;;4840344;29;20395;-89
2023/05/20 04:32:20;;;;;;;9.85;3.20;;;;;;;;;;4848840;29;20042;-90
2023/05/20 04:35:01;;;;;;;9.68;3.67;;;10.10;99.90;;;;;;4840684;29;20053;-89
2023/05/20 04:37:27;;;;;;;9.95;3.38;;;10.30;99.90;;;;;;4839528;29;20053;-88
2023/05/20 04:40:05;;;;;;;9.25;3.17;;;10.80;99.90;;;;;;4841885;29;20121;-89
2023/05/20 04:42:34;;;;;;;9.95;3.30;;;10.20;99.90;;;;;;4842788;29;20050;-89
2023/05/20 04:45:00;;;;;;;9.07;3.40;;;11.00;99.90;;;;;;4843288;29;20073;-87
2023/05/20 04:47:28;;;;;;;9.57;3.53;;;11.50;99.90;;;;;;4844964;29;20566;-89
2023/05/20 04:50:11;;;;;;;8.07;3.25;;;11.10;99.90;;;;;;4844150;29;20138;-88
2023/05/20 04:52:37;;;;;;;9.45;3.17;;;11.20;99.90;;;;;;4843532;29;20046;-88
2023/05/20 04:55:20;;;;;;;11.35;3.30;;;10.40;99.90;;;;;;4807261;29;20062;-88
2023/05/20 04:57:46;;;;;;;9.90;3.70;;;10.40;99.90;;;;;;4826089;29;20077;-88
2023/05/20 05:00:36;;;;;;;9.25;3.72;;;11.20;99.90;;;;;;4857761;29;20528;-90
2023/05/20 05:03:02;;;;;;;8.63;3.10;;;10.50;99.90;;;;;;4863506;29;20124;-89
2023/05/20 05:05:28;;;;;;;9.50;3.13;;;11.70;99.90;;;;;;4860886;29;20049;-89
2023/05/20 05:07:58;;;;;;;9.75;3.00;;;10.60;99.90;;;;;;4876982;29;20379;-89
2023/05/20 05:10:24;;;;;;;8.90;2.90;;;11.10;99.90;;;;;;4846080;29;20050;-89
2023/05/20 05:12:56;;;;;;;7.25;2.60;;;11.80;99.90;;;;;;4844292;29;20129;-90
2023/05/20 05:15:24;;;;;;;8.18;3.00;;;12.00;99.90;;;;;;4843409;29;20465;-89
2023/05/20 05:17:59;;;;;;;7.88;2.88;;;10.80;99.90;;;;;;4844732;29;20053;-89
2023/05/20 05:20:25;;;;;;;8.30;2.80;;;10.90;99.90;;;;;;4843882;29;20565;-89
2023/05/20 05:22:59;;;;;;;8.48;2.80;;;11.00;99.90;;;;;;4843055;29;20050;-90
2023/05/20 05:25:34;;;;;;;9.85;2.83;;;11.50;99.90;;;;;;4844585;29;20406;-90
2023/05/20 05:31:40;;;;;;;7.97;2.63;;;11.10;99.90;;;;;;4826159;29;20094;-89
2023/05/20 05:34:06;;;;;;;9.82;3.03;;;12.30;99.90;;;;;;4831077;29;20054;-90
2023/05/20 05:36:32;;;;;;;8.48;2.70;;;12.20;99.90;;;;;;4843321;29;20045;-89
2023/05/20 05:39:16;;;;;;;7.38;2.35;;;12.40;99.90;;;;;;4843471;29;20065;-89
2023/05/20 05:41:41;;;;;;;7.57;2.50;;;11.50;99.90;;;;;;4844080;29;20092;-89
2023/05/20 05:44:22;;;;;;;10.05;2.58;;;12.80;99.90;;;;;;4843002;29;20069;-89
2023/05/20 05:46:48;;;;;;;8.05;2.72;;;12.50;99.90;;;;;;4843883;29;20064;-90
2023/05/20 05:49:13;;;;;;;7.93;2.58;;;12.80;99.90;;;;;;4843845;29;20403;-89
2023/05/20 05:51:50;;;;;;;6.75;2.40;;;12.30;99.90;;;;;;4844341;29;20058;-88
2023/05/20 05:54:28;;;;;;;8.23;2.20;;;12.00;99.90;;;;;;4841138;29;20049;-89
2023/05/20 05:59:39;;;;;;;8.73;2.42;;;11.70;99.90;;;;;;4844059;29;20057;-89
2023/05/20 06:02:16;;;;;;;6.75;2.03;;;12.60;99.90;;;;;;4849840;29;20057;-90
2023/05/20 06:04:42;;;;;;;6.93;2.33;;;13.00;99.90;;;;;;4851816;29;20064;-89
2023/05/20 06:07:23;;;;;;;7.45;2.22;;;12.80;99.90;;;;;;4861840;29;20046;-89
2023/05/20 06:09:49;;;;;;;8.77;2.42;;;12.80;99.90;;;;;;4861918;29;20120;-87
2023/05/20 06:12:23;;;;;;;7.15;2.58;;;12.70;99.90;;;;;;4860896;29;20450;-88
2023/05/20 06:15:08;;;;;;;7.03;2.35;;;11.40;99.90;;;;;;4860515;29;20053;-89
2023/05/20 06:17:34;;;;;;;8.18;2.60;;;12.20;99.90;;;;;;4862385;29;20528;-89
2023/05/20 06:20:00;;;;;;;8.30;2.22;;;13.10;99.90;;;;;;4861480;29;20061;-89
2023/05/20 06:22:40;;;;;;;7.32;2.50;;;13.00;99.90;;;;;;4863563;29;20057;-89
2023/05/20 06:25:15;;;;;;;8.13;2.40;;;11.60;99.90;;;;;;4863171;29;20128;-88
2023/05/20 06:27:41;;;;;;;8.35;2.55;;;12.50;99.90;;;;;;4863046;29;20057;-90
2023/05/20 06:30:07;;;;;;;7.90;2.38;;;13.70;99.90;;;;;;4862499;29;20070;-89
2023/05/20 06:32:33;;;;;;;7.53;2.22;;;12.70;99.90;;;;;;4861235;29;20061;-89
2023/05/20 06:34:59;;;;;;;7.78;2.42;;;13.80;99.90;;;;;;4843010;29;20050;-84
2023/05/20 06:37:25;;;;;;;7.75;2.45;;;13.90;99.90;;;;;;4841778;29;20089;-83
2023/05/20 06:39:52;;;;;;;9.68;2.83;;;13.80;99.90;;;;;;4842144;29;20495;-83
2023/05/20 06:42:19;;;;;;;7.13;2.53;;;12.90;99.90;;;;;;4842928;29;20053;-82
2023/05/20 06:45:21;;;;;;;7.78;2.63;;;13.00;99.90;;;;;;4841549;29;20106;-81
2023/05/20 06:47:53;;;;;;;7.80;2.55;;;12.70;99.90;;;;;;4825655;29;20123;-83
2023/05/20 06:50:21;;;;;;;7.95;2.50;;;13.30;99.90;;;;;;4837554;29;20069;-82
2023/05/20 06:52:47;;;;;;;8.48;3.00;;;13.40;99.90;;;;;;4843002;29;20048;-81
2023/05/20 06:55:12;;;;;;;7.72;2.70;;;13.50;99.90;;;;;;4841635;29;20141;-83
2023/05/20 06:57:38;;;;;;;8.10;2.88;;;13.60;99.90;;;;;;4842513;29;20089;-83
2023/05/20 07:00:05;;;;;;;8.43;2.67;;;13.80;99.90;;;;;;4841687;29;20141;-84
2023/05/20 07:02:32;;;;;;;7.90;2.80;;;13.80;99.90;;;;;;4842409;29;20187;-81
2023/05/20 07:04:58;;;;;;;8.00;3.13;;;14.00;99.90;;;;;;4841599;29;20046;-81
2023/05/20 07:07:23;;;;;;;8.07;3.13;;;14.00;99.90;;;;;;4841018;29;20056;-81
2023/05/20 07:09:49;;;;;;;8.38;3.15;;;14.60;99.90;;;;;;4842407;29;20120;-81
2023/05/20 07:12:15;;;;;;;8.65;3.00;;;14.20;99.90;;;;;;4841569;29;20050;-81
2023/05/20 07:14:41;;;;;;;7.70;2.80;;;14.40;99.90;;;;;;4842343;29;20146;-81
2023/05/20 07:17:07;;;;;;;8.90;3.08;;;14.50;99.90;;;;;;4840948;29;20053;-81
2023/05/20 07:19:33;;;;;;;8.65;3.10;;;15.20;99.90;;;;;;4841741;29;20050;-79
2023/05/20 07:21:59;;;;;;;8.82;3.30;;;14.80;99.90;;;;;;4840783;29;20529;-82
2023/05/20 07:24:25;;;;;;;9.27;3.30;;;15.10;99.90;;;;;;4840300;29;20064;-81
2023/05/20 07:26:50;;;;;;;7.45;3.13;;;14.90;99.90;;;;;;4841890;29;20102;-81
2023/05/20 07:29:16;;;;;;;9.15;3.08;;;16.00;99.90;;;;;;4840676;29;20053;-81
2023/05/20 07:31:41;;;;;;;8.73;3.08;;;15.50;99.90;;;;;;4841952;29;20101;-81
2023/05/20 07:34:07;;;;;;;10.55;3.30;;;15.40;99.90;;;;;;4841494;29;20053;-81
2023/05/20 07:36:33;;;;;;;8.10;3.13;;;15.70;99.90;;;;;;4842104;29;20074;-82
2023/05/20 07:38:58;;;;;;;9.98;3.00;;;16.40;99.90;;;;;;4840591;29;20054;-81
2023/05/20 07:41:25;;;;;;;9.20;3.38;;;15.70;99.90;;;;;;4841250;29;20049;-82
2023/05/20 07:43:51;;;;;;;8.68;3.30;;;15.80;99.90;;;;;;4840861;29;20372;-82
2023/05/20 07:46:16;;;;;;;8.38;3.35;;;15.80;99.90;;;;;;4839391;29;20487;-81
2023/05/20 07:48:43;;;;;;;9.10;3.65;;;15.90;99.90;;;;;;4842153;29;20132;-82
2023/05/20 07:51:09;;;;;;;8.63;3.30;;;15.90;99.90;;;;;;4840380;29;20058;-81
2023/05/20 07:53:35;;;;;;;10.50;3.50;;;16.00;99.90;;;;;;4839737;29;20100;-81
2023/05/20 07:56:00;;;;;;;10.95;3.47;;;16.10;99.90;;;;;;4840673;29;20407;-81
2023/05/20 07:58:27;;;;;;;8.32;3.50;;;16.20;99.90;;;;;;4841461;29;20054;-81
2023/05/20 08:00:53;;;;;;;7.90;3.35;;;16.30;99.90;;;;;;4840833;29;20062;-84
2023/05/20 08:03:20;;;;;;;9.05;3.20;;;16.30;99.90;;;;;;4840711;29;20053;-84
2023/05/20 08:05:46;;;;;;;8.55;3.67;;;16.40;99.90;;;;;;4839941;29;20052;-84
2023/05/20 08:08:21;;;;;;;7.60;3.25;;;16.50;99.90;;;;;;4839017;29;20053;-84
2023/05/20 08:10:55;;;;;;;8.75;3.30;;;16.50;99.90;;;;;;4841111;29;20046;-83
2023/05/20 08:13:22;;;;;;;9.25;3.40;;;16.60;99.90;;;;;;4837949;29;20137;-84
2023/05/20 08:15:47;;;;;;;8.20;3.10;;;16.50;99.90;;;;;;4840425;29;20050;-84
2023/05/20 08:18:14;;;;;;;8.38;3.30;;;16.60;99.90;;;;;;4840340;29;20061;-84
2023/05/20 08:20:43;;;;;;;8.07;3.20;;;16.80;99.90;;;;;;4840364;29;20038;-83
2023/05/20 08:23:09;;;;;;;8.60;3.40;;;16.80;99.90;;;;;;4839223;29;20152;-84
2023/05/20 08:25:41;;;;;;;9.50;3.42;;;16.90;99.90;;;;;;4840397;29;20053;-84
2023/05/20 08:28:06;;;;;;;9.25;3.28;;;17.10;99.90;;;;;;4840070;29;20057;-85
2023/05/20 08:30:33;;;;;;;8.35;3.15;;;17.10;99.90;;;;;;4840691;29;20050;-85
2023/05/20 08:32:59;;;;;;;8.43;3.60;;;17.20;99.90;;;;;;4841678;29;20069;-85
2023/05/20 08:35:28;;;;;;;7.97;3.20;;;17.20;99.90;;;;;;4840107;29;20050;-85
2023/05/20 08:37:57;;;;;;;10.20;3.03;;;17.50;99.90;;;;;;4840329;29;20058;-85
2023/05/20 08:41:10;;;;;;;8.30;3.35;;;17.50;99.90;;;;;;4841223;29;20061;-85
2023/05/20 08:43:36;;;;;;;8.68;3.28;;;17.80;99.90;;;;;;4848378;29;20111;-85
2023/05/20 08:46:12;;;;;;;8.45;3.22;;;17.60;99.90;;;;;;4841499;29;20060;-84
2023/05/20 08:48:38;;;;;;;8.07;3.28;;;17.70;99.90;;;;;;4841818;29;20042;-84
2023/05/20 08:51:19;;;;;;;8.30;3.05;;;18.60;99.90;;;;;;4839077;29;20372;-85
2023/05/20 08:53:45;;;;;;;8.00;3.20;;;18.20;99.90;;;;;;4840015;29;20554;-85
2023/05/20 08:56:37;;;;;;;8.00;3.00;;;17.80;99.90;;;;;;4838946;29;20049;-85
2023/05/20 08:59:09;;;;;;;7.63;2.75;;;17.90;99.10;;;;;;4841038;29;20054;-86
2023/05/20 09:02:00;;;;;;;9.90;3.08;;;18.50;99.60;;;;;;4842115;29;20077;-86
2023/05/20 09:04:26;;;;;;;8.10;2.80;;;18.10;98.70;;;;;;4838847;29;20097;-85
2023/05/20 09:07:10;;;;;;;8.55;3.15;;;18.20;99.30;;;;;;4839719;29;20078;-85
2023/05/20 09:09:42;;;;;;;8.57;3.10;;;18.30;98.30;;;;;;4839850;29;20129;-85
2023/05/20 09:12:07;;;;;;;8.23;2.95;;;18.50;98.60;;;;;;4892883;23;20056;-85
2023/05/20 09:14:33;;;;;;;7.85;3.00;;;18.40;98.90;;;;;;4895839;29;20464;-85
2023/05/20 09:16:59;;;;;;;7.93;2.88;;;18.50;98.60;;;;;;4896841;29;20044;-85
2023/05/20 09:19:25;;;;;;;7.15;2.70;;;18.60;98.60;;;;;;4894629;29;20485;-85
2023/05/20 09:22:03;;;;;;;9.77;3.10;;;18.90;98.70;;;;;;4895366;29;20485;-85
2023/05/20 09:24:29;;;;;;;8.50;3.00;;;18.90;97.20;;;;;;4895393;29;20508;-85
2023/05/20 09:26:58;;;;;;;7.55;2.78;;;20.00;98.30;;;;;;4895106;29;20056;-84
2023/05/20 09:29:25;;;;;;;7.60;2.60;;;19.20;97.80;;;;;;4896888;29;20044;-84
2023/05/20 09:31:51;;;;;;;8.15;3.00;;;19.50;97.40;;;;;;4898273;29;20052;-84
2023/05/20 09:34:19;;;;;;;8.65;3.08;;;19.30;97.10;;;;;;4899080;29;20409;-84
2023/05/20 09:37:06;;;;;;;8.43;3.10;;;19.80;96.60;;;;;;4900464;29;20052;-84
2023/05/20 09:39:52;;;;;;;7.78;2.97;;;19.00;96.30;;;;;;4899496;29;20052;-84
2023/05/20 09:42:25;;;;;;;8.93;3.20;;;19.40;97.10;;;;;;4899917;29;20049;-85
2023/05/20 09:44:55;;;;;;;8.80;3.00;;;18.90;97.10;;;;;;4900566;29;20127;-85
2023/05/20 09:47:24;;;;;;;7.38;2.72;;;18.90;97.00;;;;;;4899696;29;20044;-85
2023/05/20 09:50:08;;;;;;;8.40;2.90;;;19.10;96.90;;;;;;4900281;29;20112;-85
2023/05/20 09:52:38;;;;;;;8.50;2.95;;;19.50;96.90;;;;;;4898718;29;20084;-85
2023/05/20 09:55:24;;;;;;;8.00;2.92;;;19.50;96.60;;;;;;4898833;29;20143;-84
2023/05/20 09:57:52;;;;;;;8.52;2.97;;;19.40;96.10;;;;;;4901088;29;20055;-84
2023/05/20 10:03:55;;;;;;;7.97;2.70;;;19.60;95.80;;;;;;4901808;29;20052;-83
2023/05/20 10:06:27;;;;;;;7.05;2.58;;;20.20;96.00;;;;;;4901834;29;20044;-84
2023/05/20 10:09:22;;;;;;;8.35;2.42;;;20.40;95.60;;;;;;4900641;29;20077;-85
2023/05/20 10:12:26;;;;;;;7.10;2.30;;;20.40;94.50;;;;;;4900350;29;20056;-85
2023/05/20 10:15:38;;;;;;;8.70;2.72;;;20.60;94.90;;;;;;4898891;29;20087;-85
2023/05/20 10:18:46;;;;;;;8.55;2.65;;;20.90;94.40;;;;;;4901220;29;20083;-85
2023/05/20 10:21:24;;;;;;;8.35;2.65;;;21.00;93.90;;;;;;4900336;29;20073;-86
2023/05/20 10:23:51;;;;;;;8.75;2.45;;;21.10;93.80;;;;;;4900401;29;20076;-86
2023/05/20 10:26:17;;;;;;;8.60;2.47;;;21.10;94.60;;;;;;4899147;29;20430;-85
2023/05/20 10:28:44;;;;;;;7.30;2.40;;;20.90;94.60;;;;;;4898954;29;20049;-85
2023/05/20 10:31:23;;;;;;;9.25;2.50;;;21.20;94.50;;;;;;4900559;29;20083;-86
2023/05/20 10:36:58;;;;;;;7.13;2.40;;;21.10;93.60;;;;;;4914226;23;20048;-85
2023/05/20 10:39:51;;;;;;;10.27;2.60;;;21.10;93.60;;;;;;4899925;29;20116;-85
2023/05/20 10:42:28;;;;;;;8.02;2.28;;;21.00;93.20;;;;;;4897754;29;20544;-85
2023/05/20 10:45:46;;;;;;;6.20;2.13;;;21.70;93.60;;;;;;4900069;29;20101;-86
2023/05/20 10:48:34;;;;;;;7.05;2.13;;;21.70;91.90;;;;;;4900861;29;20131;-87
2023/05/20 10:51:38;;;;;;;7.03;2.22;;;21.60;92.30;;;;;;4899503;29;20176;-86
2023/05/20 10:54:25;;;;;;;7.85;2.42;;;21.80;92.60;;;;;;4900954;29;20492;-88
2023/05/20 11:00:40;;;;;;;7.68;2.38;;;20.90;92.20;;;;;;4898372;29;20040;-86
2023/05/20 11:03:24;;;;;;;8.30;2.25;;;20.80;93.10;;;;;;4898021;29;20457;-87
2023/05/20 11:09:48;;;;;;;10.30;2.65;;;20.90;92.10;;;;;;4896863;29;20523;-84
2023/05/20 11:12:32;;;;;;;8.63;2.50;;;21.00;93.20;;;;;;4895706;29;20099;-84
2023/05/20 11:14:58;;;;;;;11.27;2.58;;;21.20;92.50;;;;;;4880781;29;20048;-84
2023/05/20 11:17:33;;;;;;;13.43;2.70;;;21.70;93.00;;;;;;4879689;29;20064;-84
2023/05/20 11:20:09;;;;;;;7.80;2.40;;;21.70;92.70;;;;;;4896024;29;20135;-84
2023/05/20 11:22:53;;;;;;;8.00;2.60;;;21.80;92.70;;;;;;4880385;29;20051;-84
2023/05/20 11:25:27;;;;;;;8.90;2.45;;;21.40;92.10;;;;;;4897354;29;20052;-84
2023/05/20 11:27:52;;;;;;;;;;;21.00;92.30;;;;;;4898867;29;20151;-84
2023/05/20 11:30:33;;;;;;;9.20;2.80;;;20.70;92.40;;;;;;4896695;29;20391;-84
2023/05/20 11:33:00;;;;;;;8.63;2.70;;;20.30;92.80;;;;;;4897805;29;20056;-81
2023/05/20 11:35:29;;;;;;;7.43;2.60;;;20.50;92.90;;;;;;4897875;29;20060;-84
2023/05/20 11:38:20;;;;;;;6.93;2.60;;;20.60;92.80;;;;;;4896967;29;20056;-83
2023/05/20 11:40:55;;;;;;;8.75;2.70;;;20.50;92.40;;;;;;4898070;29;20048;-84
2023/05/20 11:43:33;;;;;;;7.72;2.70;;;20.70;93.30;;;;;;4896448;29;20188;-84
2023/05/20 11:46:20;;;;;;;8.07;2.60;;;21.00;92.80;;;;;;4896076;29;20045;-84
2023/05/20 11:49:09;;;;;;;8.00;2.45;;;21.50;92.50;;;;;;4898150;29;20044;-82
2023/05/20 11:51:36;;;;;;;9.50;2.40;;;21.70;92.60;;;;;;4895738;29;20051;-82
2023/05/20 11:54:03;;;;;;;8.23;2.50;;;21.40;92.40;;;;;;4895756;29;20052;-82
2023/05/20 11:56:44;;;;;;;7.40;2.58;;;21.10;92.20;;;;;;4896323;29;20044;-83
2023/05/20 11:59:19;;;;;;;7.65;2.50;;;21.00;91.90;;;;;;4896550;29;20067;-83
2023/05/20 12:01:44;;;;;;;7.07;2.42;;;21.00;92.20;;;;;;4895488;29;20049;-83
2023/05/20 12:04:28;;;;;;;8.10;2.60;;;21.10;92.10;;;;;;4896686;29;20378;-84
2023/05/20 12:07:10;;;;;;;8.80;2.53;;;21.70;91.60;;;;;;4897283;29;20045;-83
2023/05/20 12:09:35;;;;;;;7.57;2.60;;;21.30;91.90;;;;;;4896437;29;20493;-83
2023/05/20 12:12:01;;;;;;;7.10;2.50;;;21.20;92.10;;;;;;4897552;29;20052;-83
2023/05/20 12:14:39;;;;;;;7.68;2.30;;;21.10;91.80;;;;;;4899208;29;20072;-83
2023/05/20 12:17:42;;;;;;;7.43;2.33;;;21.30;91.40;;;;;;4916509;29;20136;-83
2023/05/20 12:20:09;;;;;;;10.50;2.60;;;21.80;91.20;;;;;;4916055;29;20119;-84
2023/05/20 12:22:41;;;;;;;26.15;3.38;;;22.50;91.70;;;;;;4915890;29;20075;-84
2023/05/20 12:25:10;;;;;;;9.45;2.30;;;22.70;91.60;;;;;;4915118;29;20052;-84
2023/05/20 12:27:35;;;;;;;8.07;2.30;;;22.90;91.90;;;;;;4914792;29;20134;-84
2023/05/20 12:30:01;;;;;;;8.07;2.72;;;23.20;91.60;;;;;;4915136;29;20075;-82
2023/05/20 12:32:26;;;;;;;6.65;2.40;;;22.60;91.30;;;;;;4915123;29;20079;-83
2023/05/20 12:34:52;;;;;;;37.45;16.58;;;22.60;90.80;;;;;;4904990;29;20112;-82
2023/05/20 12:37:17;;;;;;;15.23;5.95;;;22.30;90.70;;;;;;4879800;29;20057;-82
2023/05/20 12:39:43;;;;;;;14.45;3.42;;;21.90;90.90;;;;;;4877214;29;20056;-82
2023/05/20 12:42:09;;;;;;;8.10;2.75;;;21.70;91.00;;;;;;4877804;29;20085;-82
2023/05/20 12:44:34;;;;;;;8.60;2.38;;;21.80;91.50;;;;;;4878791;29;20055;-82
2023/05/20 12:47:00;;;;;;;7.13;2.40;;;22.20;91.60;;;;;;4878657;29;20049;-82
2023/05/20 12:49:25;;;;;;;7.28;2.22;;;22.50;91.50;;;;;;4877580;29;20097;-83
2023/05/20 12:51:51;;;;;;;6.07;2.42;;;23.00;91.30;;;;;;4877697;29;20053;-83
2023/05/20 12:54:16;;;;;;;8.95;2.60;;;23.40;91.00;;;;;;4878208;29;20049;-83
2023/05/20 12:56:46;;;;;;;8.32;2.50;;;23.70;90.80;;;;;;4876715;29;20049;-83
2023/05/20 12:59:12;;;;;;;7.13;2.45;;;23.60;90.40;;;;;;4884379;29;20409;-83
2023/05/20 13:01:39;;;;;;;9.07;2.33;;;23.80;90.00;;;;;;4895574;29;20048;-82
2023/05/20 13:04:04;;;;;;;7.88;2.30;;;24.00;90.30;;;;;;4899720;29;20100;-82
2023/05/20 13:06:30;;;;;;;7.30;2.72;;;23.70;90.00;;;;;;4900529;29;20045;-82
2023/05/20 13:08:56;;;;;;;8.55;2.70;;;23.10;89.60;;;;;;4899864;29;20052;-81
2023/05/20 13:11:22;;;;;;;7.95;2.10;;;22.80;90.00;;;;;;4895968;29;20044;-82
2023/05/20 13:13:48;;;;;;;5.80;2.00;;;23.20;90.30;;;;;;4900716;29;20501;-82
2023/05/20 13:16:15;;;;;;;8.57;2.65;;;23.30;90.30;;;;;;4900387;29;20059;-82
2023/05/20 13:18:41;;;;;;;8.15;2.65;;;23.00;90.00;;;;;;4898643;29;20052;-82
2023/05/20 13:21:06;;;;;;;8.05;2.28;;;22.60;89.50;;;;;;4898781;29;20044;-82
2023/05/20 13:23:32;;;;;;;7.45;2.20;;;22.20;89.80;;;;;;4899759;29;20060;-82
2023/05/20 13:25:58;;;;;;;6.43;2.35;;;22.10;90.10;;;;;;4900044;29;20431;-82
2023/05/20 13:28:24;;;;;;;8.73;2.22;;;21.90;90.20;;;;;;4900201;29;20052;-82
2023/05/20 13:30:50;;;;;;;7.60;2.42;;;21.70;90.00;;;;;;4900709;29;20089;-81
2023/05/20 13:33:15;;;;;;;6.85;2.42;;;21.40;90.10;;;;;;4899360;29;20045;-82
2023/05/20 13:35:41;;;;;;;7.00;2.42;;;21.30;90.10;;;;;;4900535;29;20060;-82